Time;durP1;ratioP1;P1;durP2;ratioP2;P2;SDS_P1;SDS_P2;PMS_P1;PMS_P2;Temp;Humidity;BMP_temperature;BMP_pressure;BME280_temperature;BME280_humidity;BME280_pressure;Samples;Min_cycle;Max_cycle;Signal;HPM_P1;HPM_P2
2022/07/23 00:00:15;;;;;;;;;;;20.20;51.90;;;;;;5167657;27;21191;-54
2022/07/23 00:02:41;;;;;;;;;;;20.00;51.70;;;;;;5165037;27;19927;-47
2022/07/23 00:05:07;;;;;;;;;;;20.40;57.10;;;;;;5163404;27;19927;-46
2022/07/23 00:07:33;;;;;;;;;;;21.20;59.40;;;;;;5167927;27;20323;-47
2022/07/23 00:09:58;;;;;;;;;;;21.80;58.40;;;;;;5142920;27;20009;-46
2022/07/23 00:12:24;;;;;;;;;;;21.20;56.40;;;;;;5163230;27;19926;-46
2022/07/23 00:14:50;;;;;;;;;;;20.90;54.80;;;;;;5150323;27;20400;-49
2022/07/23 00:17:16;;;;;;;;;;;20.80;53.70;;;;;;5163400;27;19922;-47
2022/07/23 00:19:41;;;;;;;;;;;20.70;53.20;;;;;;5165153;27;19972;-57
2022/07/23 00:22:07;;;;;;;;;;;20.40;53.10;;;;;;5167131;27;19922;-47
2022/07/23 00:24:33;;;;;;;;;;;20.40;52.30;;;;;;5163137;27;19994;-47
2022/07/23 00:26:59;;;;;;;;;;;20.40;52.00;;;;;;5166944;27;20401;-51
2022/07/23 00:29:24;;;;;;;;;;;20.30;51.90;;;;;;5162233;27;19927;-47
2022/07/23 00:31:50;;;;;;;;;;;20.00;52.30;;;;;;5163060;27;20149;-49
2022/07/23 00:34:16;;;;;;;;;;;20.10;52.80;;;;;;5168588;27;19948;-48
2022/07/23 00:36:42;;;;;;;;;;;20.60;58.30;;;;;;5163216;27;20351;-49
2022/07/23 00:39:08;;;;;;;;;;;21.40;59.10;;;;;;5162685;27;19923;-49
2022/07/23 00:41:33;;;;;;;;;;;21.80;57.30;;;;;;5168211;27;20309;-47
2022/07/23 00:44:15;;;;;;;;;;;21.10;55.50;;;;;;5162140;27;19954;-48
2022/07/23 00:46:48;;;;;;;;;;;20.60;54.90;;;;;;5165352;27;20511;-54
2022/07/23 00:49:14;;;;;;;;;;;20.60;53.80;;;;;;5167113;27;20369;-48
2022/07/23 00:51:40;;;;;;;;;;;20.40;53.30;;;;;;5162618;27;19923;-47
2022/07/23 00:54:06;;;;;;;;;;;20.30;52.90;;;;;;5168301;27;19930;-46
2022/07/23 00:56:31;;;;;;;;;;;20.30;52.70;;;;;;5162386;27;19966;-46
2022/07/23 00:58:57;;;;;;;;;;;20.20;52.40;;;;;;5142058;27;19975;-46
2022/07/23 01:01:23;;;;;;;;;;;20.00;52.70;;;;;;5167947;27;19923;-48
2022/07/23 01:03:49;;;;;;;;;;;20.20;52.20;;;;;;5160721;27;20386;-53
2022/07/23 01:06:14;;;;;;;;;;;20.30;55.70;;;;;;5161740;27;19934;-51
2022/07/23 01:08:40;;;;;;;;;;;21.00;59.50;;;;;;5167518;27;19926;-46
2022/07/23 01:11:06;;;;;;;;;;;21.80;59.60;;;;;;5162247;27;20037;-46
2022/07/23 01:13:32;;;;;;;;;;;21.30;57.20;;;;;;5149543;27;20278;-45
2022/07/23 01:15:58;;;;;;;;;;;20.80;55.70;;;;;;5162118;27;19929;-45
2022/07/23 01:18:24;;;;;;;;;;;20.80;54.60;;;;;;5162430;27;19923;-47
2022/07/23 01:20:49;;;;;;;;;;;20.50;53.70;;;;;;5167112;27;20034;-45
2022/07/23 01:23:15;;;;;;;;;;;20.40;52.90;;;;;;5160296;27;19949;-48
2022/07/23 01:25:48;;;;;;;;;;;20.00;53.00;;;;;;5126037;27;20025;-50
2022/07/23 01:28:14;;;;;;;;;;;19.90;52.90;;;;;;5167668;27;20157;-47
2022/07/23 01:30:39;;;;;;;;;;;20.10;52.00;;;;;;5162194;27;19931;-46
2022/07/23 01:33:05;;;;;;;;;;;19.80;52.40;;;;;;5167489;27;19948;-55
2022/07/23 01:35:31;;;;;;;;;;;20.10;55.50;;;;;;5143655;27;19946;-49
2022/07/23 01:37:57;;;;;;;;;;;20.90;59.10;;;;;;5162063;27;19936;-47
2022/07/23 01:40:22;;;;;;;;;;;21.60;59.80;;;;;;5165680;27;19930;-47
2022/07/23 01:42:48;;;;;;;;;;;21.40;57.60;;;;;;5161024;27;20362;-47
2022/07/23 01:45:14;;;;;;;;;;;20.80;55.90;;;;;;5161964;27;20188;-47
2022/07/23 01:47:40;;;;;;;;;;;20.70;54.60;;;;;;5167469;27;20310;-46
2022/07/23 01:50:06;;;;;;;;;;;20.50;53.60;;;;;;5143678;27;20342;-48
2022/07/23 01:52:32;;;;;;;;;;;20.20;53.80;;;;;;5165251;27;20034;-56
2022/07/23 01:54:57;;;;;;;;;;;20.10;53.00;;;;;;5164147;27;20381;-47
2022/07/23 01:57:23;;;;;;;;;;;20.10;52.50;;;;;;5163927;27;19926;-47
2022/07/23 01:59:49;;;;;;;;;;;19.90;52.20;;;;;;5172328;27;19927;-47
2022/07/23 02:02:14;;;;;;;;;;;20.50;57.60;;;;;;5168281;27;19926;-49
2022/07/23 02:04:40;;;;;;;;;;;21.20;59.80;;;;;;5168698;27;19923;-46
2022/07/23 02:07:06;;;;;;;;;;;21.80;58.50;;;;;;5174399;27;19974;-47
2022/07/23 02:09:32;;;;;;;;;;;21.00;56.80;;;;;;5168599;27;20438;-47
2022/07/23 02:11:58;;;;;;;;;;;20.50;55.40;;;;;;5169804;27;19937;-58
2022/07/23 02:14:24;;;;;;;;;;;20.50;54.10;;;;;;5173071;27;20389;-47
2022/07/23 02:16:50;;;;;;;;;;;20.30;53.40;;;;;;5167032;27;20343;-49
2022/07/23 02:19:16;;;;;;;;;;;20.20;52.60;;;;;;5172706;27;20070;-45
2022/07/23 02:21:42;;;;;;;;;;;20.20;52.20;;;;;;5168140;27;19979;-46
2022/07/23 02:24:07;;;;;;;;;;;20.10;51.80;;;;;;5168455;27;19930;-47
2022/07/23 02:26:34;;;;;;;;;;;20.00;51.80;;;;;;5173983;27;19922;-49
2022/07/23 02:29:03;;;;;;;;;;;20.20;56.40;;;;;;5168301;27;20416;-48
2022/07/23 02:31:29;;;;;;;;;;;20.90;59.70;;;;;;5168474;27;20314;-47
2022/07/23 02:33:55;;;;;;;;;;;21.80;59.20;;;;;;5173489;27;19926;-52
2022/07/23 02:36:21;;;;;;;;;;;21.20;56.80;;;;;;5166589;27;19929;-49
2022/07/23 02:38:47;;;;;;;;;;;20.80;55.20;;;;;;5173388;27;19923;-49
2022/07/23 02:41:12;;;;;;;;;;;20.60;54.30;;;;;;5168117;27;19923;-47
2022/07/23 02:43:38;;;;;;;;;;;20.40;53.30;;;;;;5168321;27;19931;-47
2022/07/23 02:46:04;;;;;;;;;;;20.10;53.10;;;;;;5173614;27;19930;-47
2022/07/23 02:48:30;;;;;;;;;;;20.10;52.70;;;;;;5168047;27;19974;-46
2022/07/23 02:50:56;;;;;;;;;;;20.10;52.10;;;;;;5168231;27;20425;-48
2022/07/23 02:53:22;;;;;;;;;;;20.20;55.50;;;;;;5172395;27;19929;-50
2022/07/23 02:55:48;;;;;;;;;;;20.90;59.40;;;;;;5166847;27;20017;-49
2022/07/23 02:58:14;;;;;;;;;;;21.60;59.60;;;;;;5173388;27;19923;-47
2022/07/23 03:00:40;;;;;;;;;;;21.30;57.10;;;;;;5167874;27;19962;-47
2022/07/23 03:03:06;;;;;;;;;;;20.90;55.40;;;;;;5167930;27;20021;-46
2022/07/23 03:05:32;;;;;;;;;;;20.50;54.50;;;;;;5173347;27;20022;-45
2022/07/23 03:07:58;;;;;;;;;;;20.30;53.70;;;;;;5167411;27;19926;-48
2022/07/23 03:10:23;;;;;;;;;;;20.20;53.00;;;;;;5163080;27;19962;-51
2022/07/23 03:12:49;;;;;;;;;;;20.00;52.60;;;;;;5167981;27;19922;-46
2022/07/23 03:15:15;;;;;;;;;;;20.00;52.30;;;;;;5163858;27;19927;-46
2022/07/23 03:17:41;;;;;;;;;;;20.00;51.90;;;;;;5168092;27;19926;-56
2022/07/23 03:20:09;;;;;;;;;;;20.40;57.10;;;;;;5166371;27;19975;-48
2022/07/23 03:22:35;;;;;;;;;;;21.20;59.50;;;;;;5164220;27;20357;-47
2022/07/23 03:25:00;;;;;;;;;;;21.80;58.20;;;;;;5169401;27;20048;-48
2022/07/23 03:27:30;;;;;;;;;;;21.20;56.40;;;;;;5164252;27;19948;-47
2022/07/23 03:29:56;;;;;;;;;;;20.80;55.00;;;;;;5163235;27;19923;-51
2022/07/23 03:32:22;;;;;;;;;;;20.30;54.60;;;;;;5168154;27;20346;-47
2022/07/23 03:34:48;;;;;;;;;;;20.30;53.30;;;;;;5163935;27;19965;-48
2022/07/23 03:37:14;;;;;;;;;;;20.30;52.50;;;;;;5164220;27;19965;-49
2022/07/23 03:39:40;;;;;;;;;;;20.10;52.20;;;;;;5169395;27;19922;-47
2022/07/23 03:42:06;;;;;;;;;;;19.80;52.40;;;;;;5163600;27;20370;-47
2022/07/23 03:44:32;;;;;;;;;;;20.10;55.10;;;;;;5169329;27;19934;-48
2022/07/23 03:46:57;;;;;;;;;;;20.80;59.30;;;;;;5163944;27;19930;-48
2022/07/23 03:49:23;;;;;;;;;;;21.70;59.30;;;;;;5162138;27;19930;-48
2022/07/23 03:51:49;;;;;;;;;;;21.20;57.10;;;;;;5168793;27;19923;-45
2022/07/23 03:54:15;;;;;;;;;;;20.70;55.60;;;;;;5163588;27;19929;-47
2022/07/23 03:56:40;;;;;;;;;;;20.60;54.00;;;;;;5163555;27;20245;-47
2022/07/23 03:59:06;;;;;;;;;;;20.30;53.70;;;;;;5169235;27;19930;-47
2022/07/23 04:01:32;;;;;;;;;;;20.00;52.80;;;;;;5163206;27;19952;-47
2022/07/23 04:03:58;;;;;;;;;;;20.10;52.40;;;;;;5169028;27;19930;-47
2022/07/23 04:06:23;;;;;;;;;;;20.00;52.10;;;;;;5162793;27;19946;-49
2022/07/23 04:08:49;;;;;;;;;;;19.90;51.80;;;;;;5161782;27;19923;-47
2022/07/23 04:11:15;;;;;;;;;;;20.30;57.60;;;;;;5169096;27;20364;-50
2022/07/23 04:13:41;;;;;;;;;;;21.10;59.80;;;;;;5163589;27;20303;-46
2022/07/23 04:16:07;;;;;;;;;;;21.70;58.40;;;;;;5163533;27;20169;-46
2022/07/23 04:18:33;;;;;;;;;;;21.00;56.40;;;;;;5168834;27;19949;-48
2022/07/23 04:20:59;;;;;;;;;;;20.60;55.10;;;;;;5162742;27;19923;-48
2022/07/23 04:23:24;;;;;;;;;;;20.30;54.60;;;;;;5168207;27;19930;-49
2022/07/23 04:25:50;;;;;;;;;;;20.20;53.60;;;;;;5161716;27;19929;-46
2022/07/23 04:28:18;;;;;;;;;;;20.20;52.60;;;;;;5162218;27;19979;-49
2022/07/23 04:30:43;;;;;;;;;;;20.10;52.70;;;;;;5168525;27;19969;-47
2022/07/23 04:33:09;;;;;;;;;;;19.90;52.40;;;;;;5163068;27;19938;-49
2022/07/23 04:35:35;;;;;;;;;;;19.90;51.90;;;;;;5163146;27;19923;-50
2022/07/23 04:38:01;;;;;;;;;;;19.90;52.20;;;;;;5168293;27;19973;-48
2022/07/23 04:40:27;;;;;;;;;;;20.60;57.60;;;;;;5163006;27;20378;-46
2022/07/23 04:42:53;;;;;;;;;;;21.30;59.30;;;;;;5165110;27;19922;-57
2022/07/23 04:45:18;;;;;;;;;;;21.80;58.10;;;;;;5164273;27;19927;-51
2022/07/23 04:47:44;;;;;;;;;;;21.10;56.30;;;;;;5162616;27;19974;-48
2022/07/23 04:50:10;;;;;;;;;;;20.80;54.90;;;;;;5168421;27;20007;-45
2022/07/23 04:52:36;;;;;;;;;;;20.30;54.20;;;;;;5162847;27;19923;-48
2022/07/23 04:55:02;;;;;;;;;;;20.50;52.60;;;;;;5162825;27;19922;-46
2022/07/23 04:57:28;;;;;;;;;;;20.20;52.90;;;;;;5168110;27;20049;-45
2022/07/23 04:59:54;;;;;;;;;;;20.10;52.50;;;;;;5162646;27;19922;-47
2022/07/23 05:02:19;;;;;;;;;;;19.80;52.60;;;;;;5161280;27;19923;-53
2022/07/23 05:04:45;;;;;;;;;;;19.90;52.00;;;;;;5147786;27;19926;-50
2022/07/23 05:07:11;;;;;;;;;;;20.30;55.90;;;;;;5162566;27;19923;-51
2022/07/23 05:09:37;;;;;;;;;;;21.00;59.30;;;;;;5168016;27;19929;-47
2022/07/23 05:12:02;;;;;;;;;;;21.70;59.20;;;;;;5143520;27;20305;-48
2022/07/23 05:14:28;;;;;;;;;;;21.30;56.60;;;;;;5162088;27;19998;-51
2022/07/23 05:16:54;;;;;;;;;;;20.80;55.20;;;;;;5167854;27;19966;-47
2022/07/23 05:19:20;;;;;;;;;;;20.70;54.00;;;;;;5162013;27;20393;-49
2022/07/23 05:21:46;;;;;;;;;;;20.40;53.40;;;;;;5160317;27;19979;-53
2022/07/23 05:24:11;;;;;;;;;;;20.30;53.00;;;;;;5167230;27;19930;-47
2022/07/23 05:26:37;;;;;;;;;;;20.00;53.20;;;;;;5162187;27;19922;-46
2022/07/23 05:29:03;;;;;;;;;;;20.00;52.70;;;;;;5167830;27;19923;-46
2022/07/23 05:31:29;;;;;;;;;;;20.00;52.40;;;;;;5161755;27;19941;-49
2022/07/23 05:33:54;;;;;;;;;;;20.20;55.50;;;;;;5161581;27;19923;-47
2022/07/23 05:36:20;;;;;;;;;;;20.80;59.60;;;;;;5167452;27;19922;-49
2022/07/23 05:38:46;;;;;;;;;;;21.70;59.30;;;;;;5160801;27;19975;-48
2022/07/23 05:41:12;;;;;;;;;;;21.30;56.40;;;;;;5141849;27;20420;-46
2022/07/23 05:43:38;;;;;;;;;;;20.80;55.40;;;;;;5167458;27;19927;-46
2022/07/23 05:46:03;;;;;;;;;;;20.40;54.80;;;;;;5143433;27;19930;-48
2022/07/23 05:48:29;;;;;;;;;;;20.40;53.50;;;;;;5167309;27;20437;-46
2022/07/23 05:50:55;;;;;;;;;;;20.30;53.40;;;;;;5161592;27;19922;-46
2022/07/23 05:53:21;;;;;;;;;;;20.30;52.40;;;;;;5161642;27;20525;-50
2022/07/23 05:55:47;;;;;;;;;;;20.10;52.50;;;;;;5167183;27;19926;-52
2022/07/23 05:58:12;;;;;;;;;;;19.90;52.10;;;;;;5160020;27;20010;-52
2022/07/23 06:00:38;;;;;;;;;;;20.00;52.80;;;;;;5160970;27;19922;-47
2022/07/23 06:03:04;;;;;;;;;;;20.60;58.60;;;;;;5166917;27;19934;-47
2022/07/23 06:05:30;;;;;;;;;;;21.30;59.60;;;;;;5161829;27;19955;-46
2022/07/23 06:07:55;;;;;;;;;;;21.80;58.00;;;;;;5167307;27;20366;-53
2022/07/23 06:10:21;;;;;;;;;;;21.20;55.90;;;;;;5161921;27;19973;-45
2022/07/23 06:12:47;;;;;;;;;;;20.80;54.50;;;;;;5161797;27;19975;-47
2022/07/23 06:15:13;;;;;;;;;;;20.60;53.80;;;;;;5165809;27;20396;-47
2022/07/23 06:17:39;;;;;;;;;;;20.40;53.20;;;;;;5160000;27;20366;-47
2022/07/23 06:20:08;;;;;;;;;;;20.20;52.60;;;;;;5161295;27;20100;-47
2022/07/23 06:22:34;;;;;;;;;;;20.10;52.10;;;;;;5166813;27;19945;-48
2022/07/23 06:25:00;;;;;;;;;;;19.90;52.20;;;;;;5161650;27;19922;-52
2022/07/23 06:27:25;;;;;;;;;;;20.20;56.10;;;;;;5163091;27;19930;-54
2022/07/23 06:29:51;;;;;;;;;;;21.00;59.20;;;;;;5165064;27;20338;-47
2022/07/23 06:32:17;;;;;;;;;;;21.80;58.90;;;;;;5161171;27;19923;-50
2022/07/23 06:34:43;;;;;;;;;;;21.40;56.50;;;;;;5164915;27;19934;-47
2022/07/23 06:37:09;;;;;;;;;;;20.90;55.10;;;;;;5160681;27;19922;-47
2022/07/23 06:39:34;;;;;;;;;;;20.70;53.80;;;;;;5161281;27;19923;-46
2022/07/23 06:42:01;;;;;;;;;;;20.50;53.50;;;;;;5166775;27;19927;-46
2022/07/23 06:44:26;;;;;;;;;;;20.40;53.10;;;;;;5163958;27;19929;-45
2022/07/23 06:46:52;;;;;;;;;;;20.30;52.90;;;;;;5164686;27;20377;-51
2022/07/23 06:49:18;;;;;;;;;;;20.30;52.50;;;;;;5151812;27;19962;-48
2022/07/23 06:51:44;;;;;;;;;;;20.00;52.60;;;;;;5164148;27;19941;-49
2022/07/23 06:54:09;;;;;;;;;;;19.90;52.20;;;;;;5168471;27;20290;-48
2022/07/23 06:56:35;;;;;;;;;;;20.50;57.60;;;;;;5164632;27;19927;-50
2022/07/23 06:59:01;;;;;;;;;;;21.30;59.30;;;;;;5164922;27;19923;-46
2022/07/23 07:01:26;;;;;;;;;;;21.80;57.80;;;;;;5170085;27;19923;-47
2022/07/23 07:03:53;;;;;;;;;;;21.10;56.10;;;;;;5164596;27;19957;-47
2022/07/23 07:06:19;;;;;;;;;;;20.80;54.80;;;;;;5164481;27;19923;-47
2022/07/23 07:08:44;;;;;;;;;;;20.70;53.50;;;;;;5169805;27;19923;-51
2022/07/23 07:11:10;;;;;;;;;;;20.30;53.30;;;;;;5163005;27;19975;-46
2022/07/23 07:13:36;;;;;;;;;;;20.30;52.80;;;;;;5169047;27;19961;-47
2022/07/23 07:16:02;;;;;;;;;;;20.20;52.60;;;;;;5145867;27;19933;-46
2022/07/23 07:18:28;;;;;;;;;;;20.10;52.10;;;;;;5164440;27;20013;-50
2022/07/23 07:20:54;;;;;;;;;;;20.10;55.60;;;;;;5169803;27;20376;-49
2022/07/23 07:23:20;;;;;;;;;;;20.90;59.10;;;;;;5164158;27;19927;-47
2022/07/23 07:25:46;;;;;;;;;;;21.70;58.90;;;;;;5164116;27;20222;-46
2022/07/23 07:28:12;;;;;;;;;;;21.40;56.80;;;;;;5169145;27;20018;-46
2022/07/23 07:30:38;;;;;;;;;;;20.90;55.00;;;;;;5162523;27;19929;-46
2022/07/23 07:33:04;;;;;;;;;;;20.70;54.10;;;;;;5169232;27;19923;-47
2022/07/23 07:35:31;;;;;;;;;;;20.40;53.40;;;;;;5163940;27;19927;-46
2022/07/23 07:37:58;;;;;;;;;;;20.20;53.00;;;;;;5164074;27;19982;-48
2022/07/23 07:40:24;;;;;;;;;;;20.20;52.60;;;;;;5169655;27;19952;-45
2022/07/23 07:42:50;;;;;;;;;;;20.10;52.50;;;;;;5163872;27;20294;-47
2022/07/23 07:45:16;;;;;;;;;;;19.90;52.40;;;;;;5163836;27;19937;-48
2022/07/23 07:47:42;;;;;;;;;;;20.00;52.30;;;;;;5167740;27;19934;-53
2022/07/23 07:50:08;;;;;;;;;;;20.10;56.10;;;;;;5142566;27;20017;-47
2022/07/23 07:52:36;;;;;;;;;;;20.90;59.50;;;;;;5166047;27;20316;-56
2022/07/23 07:55:04;;;;;;;;;;;21.70;59.40;;;;;;5167360;27;20466;-48
2022/07/23 07:57:30;;;;;;;;;;;21.40;57.40;;;;;;5163908;27;19945;-48
2022/07/23 07:59:55;;;;;;;;;;;20.70;55.80;;;;;;5168914;27;19922;-47
2022/07/23 08:02:21;;;;;;;;;;;20.60;54.30;;;;;;5163549;27;20527;-47
2022/07/23 08:04:48;;;;;;;;;;;20.30;53.40;;;;;;5163337;27;20032;-51
2022/07/23 08:07:14;;;;;;;;;;;20.10;53.20;;;;;;5167242;27;20377;-47
2022/07/23 08:09:40;;;;;;;;;;;20.00;52.60;;;;;;5163060;27;20373;-45
2022/07/23 08:12:06;;;;;;;;;;;20.00;52.30;;;;;;5163251;27;19922;-48
2022/07/23 08:14:32;;;;;;;;;;;20.20;53.90;;;;;;5169033;27;19990;-47
2022/07/23 08:16:59;;;;;;;;;;;20.80;59.10;;;;;;5144855;27;19923;-47
2022/07/23 08:19:24;;;;;;;;;;;21.50;59.90;;;;;;5168748;27;19949;-50
2022/07/23 08:21:50;;;;;;;;;;;21.50;57.40;;;;;;5163091;27;19923;-46
2022/07/23 08:24:16;;;;;;;;;;;21.00;55.70;;;;;;5161845;27;19990;-46
2022/07/23 08:26:42;;;;;;;;;;;20.50;54.80;;;;;;5167664;27;19927;-48
2022/07/23 08:29:08;;;;;;;;;;;20.30;53.70;;;;;;5163037;27;19934;-48
2022/07/23 08:31:34;;;;;;;;;;;20.20;53.10;;;;;;5163116;27;19931;-48
2022/07/23 08:34:00;;;;;;;;;;;20.00;52.70;;;;;;5168740;27;19929;-47
2022/07/23 08:36:31;;;;;;;;;;;19.90;52.40;;;;;;5163023;27;20285;-47
2022/07/23 08:38:58;;;;;;;;;;;19.90;53.10;;;;;;5167063;27;19931;-53
2022/07/23 08:41:24;;;;;;;;;;;20.60;58.90;;;;;;5164856;27;19923;-48
2022/07/23 08:43:50;;;;;;;;;;;21.30;59.90;;;;;;5161159;27;19930;-47
2022/07/23 08:46:16;;;;;;;;;;;21.70;58.40;;;;;;5167890;27;19929;-47
2022/07/23 08:48:42;;;;;;;;;;;20.90;56.30;;;;;;5144285;27;19926;-47
2022/07/23 08:51:08;;;;;;;;;;;20.60;54.80;;;;;;5163090;27;19926;-48
2022/07/23 08:53:35;;;;;;;;;;;20.30;53.70;;;;;;5168380;27;19923;-48
2022/07/23 08:56:02;;;;;;;;;;;20.10;53.10;;;;;;5162477;27;20025;-47
2022/07/23 08:58:27;;;;;;;;;;;20.20;52.80;;;;;;5162639;27;19986;-55
2022/07/23 09:00:53;;;;;;;;;;;20.10;52.40;;;;;;5147977;27;19927;-51
2022/07/23 09:03:23;;;;;;;;;;;20.00;52.00;;;;;;5161148;27;20437;-48
2022/07/23 09:05:49;;;;;;;;;;;20.50;58.10;;;;;;5167878;27;20018;-47
2022/07/23 09:08:15;;;;;;;;;;;21.30;59.70;;;;;;5161134;27;20014;-46
2022/07/23 09:10:51;;;;;;;;;;;21.80;58.20;;;;;;5162308;27;20546;-47
2022/07/23 09:13:27;;;;;;;;;;;21.00;56.40;;;;;;5167756;27;20021;-49
2022/07/23 09:15:54;;;;;;;;;;;20.80;54.80;;;;;;5162136;27;20054;-49
2022/07/23 09:18:27;;;;;;;;;;;20.50;53.80;;;;;;5162116;27;19990;-48
2022/07/23 09:21:04;;;;;;;;;;;20.20;53.10;;;;;;5165953;27;20491;-48
2022/07/23 09:23:36;;;;;;;;;;;20.30;52.70;;;;;;5162193;27;20007;-49
2022/07/23 09:26:02;;;;;;;;;;;20.10;52.50;;;;;;5162485;27;20294;-45
2022/07/23 09:28:28;;;;;;;;;;;20.20;51.80;;;;;;5167921;27;19926;-49
2022/07/23 09:30:53;;;;;;;;;;;20.00;52.20;;;;;;5162167;27;20365;-50
2022/07/23 09:33:22;;;;;;;;;;;20.60;57.50;;;;;;5162017;27;19946;-50
2022/07/23 09:35:48;;;;;;;;;;;21.30;59.20;;;;;;5167533;27;20378;-46
2022/07/23 09:38:14;;;;;;;;;;;21.80;57.50;;;;;;5160437;27;20086;-52
2022/07/23 09:40:40;;;;;;;;;;;21.00;55.90;;;;;;5166816;27;19946;-47
2022/07/23 09:43:06;;;;;;;;;;;20.90;54.20;;;;;;5161799;27;19923;-46
2022/07/23 09:45:32;;;;;;;;;;;20.80;53.40;;;;;;5162029;27;19927;-45
2022/07/23 09:48:13;;;;;;;;;;;20.60;52.90;;;;;;5167545;27;20009;-45
2022/07/23 09:50:40;;;;;;;;;;;20.40;52.50;;;;;;5161710;27;19922;-47
2022/07/23 09:53:06;;;;;;;;;;;20.00;52.80;;;;;;5162016;27;20012;-47
2022/07/23 09:55:38;;;;;;;;;;;20.00;52.40;;;;;;5147864;27;19927;-50
2022/07/23 09:58:06;;;;;;;;;;;19.80;53.00;;;;;;5142770;27;20373;-48
2022/07/23 10:00:31;;;;;;;;;;;20.70;58.00;;;;;;5161591;27;19926;-47
2022/07/23 10:02:57;;;;;;;;;;;21.30;59.10;;;;;;5167061;27;19942;-46
2022/07/23 10:05:23;;;;;;;;;;;21.80;57.30;;;;;;5143191;27;19977;-46
2022/07/23 10:07:49;;;;;;;;;;;21.00;56.10;;;;;;5167225;27;19922;-47
2022/07/23 10:10:15;;;;;;;;;;;20.60;54.60;;;;;;5161577;27;19957;-45
2022/07/23 10:15:17;;;;;;;;;;;20.60;52.80;;;;;;5165027;27;19935;-48
2022/07/23 10:17:43;;;;;;;;;;;20.50;52.30;;;;;;5160647;27;19934;-47
2022/07/23 10:20:09;;;;;;;;;;;20.30;52.70;;;;;;5165206;27;19923;-51
2022/07/23 10:22:37;;;;;;;;;;;20.10;52.60;;;;;;5170726;27;19926;-48
2022/07/23 10:25:10;;;;;;;;;;;20.00;52.40;;;;;;5146458;27;19948;-50
2022/07/23 10:27:45;;;;;;;;;;;20.10;51.90;;;;;;5146072;27;20202;-47
2022/07/23 10:30:25;;;;;;;;;;;20.00;51.80;;;;;;5151969;27;19927;-46
2022/07/23 10:33:14;;;;;;;;;;;20.30;56.00;;;;;;5144930;27;19922;-50
2022/07/23 10:35:44;;;;;;;;;;;21.20;58.70;;;;;;5164096;27;19927;-47
2022/07/23 10:38:15;;;;;;;;;;;21.90;57.80;;;;;;5170396;27;20014;-46
2022/07/23 10:41:00;;;;;;;;;;;21.30;55.80;;;;;;5146337;27;19961;-46
2022/07/23 10:43:26;;;;;;;;;;;20.80;54.60;;;;;;5164988;27;20381;-47
2022/07/23 10:45:52;;;;;;;;;;;20.60;53.40;;;;;;5170044;27;19971;-48
2022/07/23 10:48:26;;;;;;;;;;;20.30;53.00;;;;;;5164882;27;20451;-49
2022/07/23 10:51:11;;;;;;;;;;;20.30;52.10;;;;;;5163841;27;20170;-50
2022/07/23 10:54:03;;;;;;;;;;;20.30;51.80;;;;;;5168918;27;19926;-47
2022/07/23 10:56:47;;;;;;;;;;;20.20;51.40;;;;;;5159643;27;19933;-47
2022/07/23 10:59:13;;;;;;;;;;;20.10;51.50;;;;;;5164586;27;20005;-46
2022/07/23 11:01:39;;;;;;;;;;;20.20;51.40;;;;;;5170155;27;20380;-47
2022/07/23 11:04:07;;;;;;;;;;;20.10;52.80;;;;;;5163706;27;21407;-48
2022/07/23 11:06:48;;;;;;;;;;;20.80;57.20;;;;;;5145990;27;19931;-46
2022/07/23 11:09:25;;;;;;;;;;;21.50;57.80;;;;;;5168800;27;20271;-51
2022/07/23 11:12:10;;;;;;;;;;;21.70;55.90;;;;;;5163119;27;20017;-49
2022/07/23 11:14:54;;;;;;;;;;;20.90;54.60;;;;;;5164672;27;19974;-47
2022/07/23 11:17:20;;;;;;;;;;;20.80;53.70;;;;;;5170000;27;19983;-49
2022/07/23 11:20:04;;;;;;;;;;;20.50;53.00;;;;;;5164613;27;20053;-47
2022/07/23 11:22:37;;;;;;;;;;;20.40;52.40;;;;;;5163865;27;19923;-49
2022/07/23 11:25:02;;;;;;;;;;;20.40;52.00;;;;;;5169684;27;19929;-46
2022/07/23 11:27:44;;;;;;;;;;;20.20;52.70;;;;;;5163126;27;20205;-49
2022/07/23 11:30:11;;;;;;;;;;;20.30;51.90;;;;;;5161660;27;19926;-49
2022/07/23 11:32:38;;;;;;;;;;;20.20;51.80;;;;;;5169448;27;19931;-48
2022/07/23 11:35:18;;;;;;;;;;;20.00;51.70;;;;;;5164068;27;20328;-46
2022/07/23 11:37:43;;;;;;;;;;;20.10;52.30;;;;;;5164281;27;20063;-48
2022/07/23 11:40:11;;;;;;;;;;;20.80;57.80;;;;;;5150698;27;19930;-46
2022/07/23 11:42:37;;;;;;;;;;;21.50;58.10;;;;;;5163847;27;20427;-46
2022/07/23 11:45:04;;;;;;;;;;;21.60;56.50;;;;;;5145137;27;20183;-48
2022/07/23 11:47:30;;;;;;;;;;;21.00;55.10;;;;;;5167680;27;20021;-47
2022/07/23 11:49:57;;;;;;;;;;;20.80;54.30;;;;;;5163343;27;20419;-45
2022/07/23 11:52:23;;;;;;;;;;;20.60;53.40;;;;;;5169258;27;20385;-46
2022/07/23 11:54:56;;;;;;;;;;;20.50;52.70;;;;;;5164004;27;19927;-46
2022/07/23 11:57:29;;;;;;;;;;;20.40;52.70;;;;;;5163801;27;20365;-45
2022/07/23 12:00:13;;;;;;;;;;;20.20;52.60;;;;;;5168809;27;19934;-51
2022/07/23 12:02:40;;;;;;;;;;;19.90;52.90;;;;;;5164502;27;20031;-46
2022/07/23 12:05:06;;;;;;;;;;;20.10;52.10;;;;;;5161720;27;20504;-46
2022/07/23 12:07:33;;;;;;;;;;;20.00;52.00;;;;;;5167991;27;19945;-49
2022/07/23 12:09:59;;;;;;;;;;;20.20;51.70;;;;;;5163340;27;20346;-45
2022/07/23 12:12:25;;;;;;;;;;;20.00;51.90;;;;;;5163526;27;19931;-47
2022/07/23 12:14:57;;;;;;;;;;;20.30;56.40;;;;;;5168982;27;19926;-50
2022/07/23 12:17:31;;;;;;;;;;;21.20;58.50;;;;;;5163290;27;20009;-46
2022/07/23 12:19:56;;;;;;;;;;;21.90;58.10;;;;;;5163398;27;19948;-47
2022/07/23 12:22:23;;;;;;;;;;;21.20;56.40;;;;;;5167840;27;19923;-46
2022/07/23 12:24:52;;;;;;;;;;;20.90;54.70;;;;;;5161725;27;20442;-46
2022/07/23 12:27:19;;;;;;;;;;;20.70;53.90;;;;;;5168365;27;19923;-54
2022/07/23 12:29:45;;;;;;;;;;;20.60;53.30;;;;;;5164406;27;19930;-49
2022/07/23 12:32:18;;;;;;;;;;;20.50;52.90;;;;;;5163316;27;19934;-47
2022/07/23 12:34:44;;;;;;;;;;;20.40;52.50;;;;;;5168463;27;20078;-46
2022/07/23 12:37:28;;;;;;;;;;;20.30;52.30;;;;;;5163011;27;20013;-50
2022/07/23 12:39:54;;;;;;;;;;;20.30;52.30;;;;;;5162971;27;20317;-47
2022/07/23 12:42:20;;;;;;;;;;;20.30;52.20;;;;;;5166327;27;19923;-45
2022/07/23 12:45:04;;;;;;;;;;;20.20;52.00;;;;;;5162095;27;20398;-48
2022/07/23 12:47:30;;;;;;;;;;;20.10;52.10;;;;;;5162858;27;20041;-46
2022/07/23 12:49:56;;;;;;;;;;;20.00;52.70;;;;;;5168228;27;19953;-47
2022/07/23 12:52:21;;;;;;;;;;;20.70;57.70;;;;;;5142581;27;19927;-49
2022/07/23 12:54:47;;;;;;;;;;;21.40;58.60;;;;;;5162600;27;20080;-47
2022/07/23 12:57:13;;;;;;;;;;;21.70;57.30;;;;;;5149595;27;19923;-48
2022/07/23 12:59:39;;;;;;;;;;;21.10;56.00;;;;;;5141429;27;20375;-48
2022/07/23 13:02:05;;;;;;;;;;;20.80;54.40;;;;;;5166776;27;19922;-48
2022/07/23 13:04:33;;;;;;;;;;;20.90;53.30;;;;;;5143674;27;19999;-47
2022/07/23 13:07:00;;;;;;;;;;;20.60;52.90;;;;;;5162628;27;19978;-46
2022/07/23 13:09:26;;;;;;;;;;;20.60;52.70;;;;;;5168022;27;20484;-47
2022/07/23 13:11:53;;;;;;;;;;;20.50;52.20;;;;;;5162475;27;20022;-49
2022/07/23 13:14:18;;;;;;;;;;;20.30;52.00;;;;;;5162641;27;20279;-48
2022/07/23 13:16:44;;;;;;;;;;;20.20;52.20;;;;;;5168033;27;19937;-52
2022/07/23 13:19:10;;;;;;;;;;;20.20;52.30;;;;;;5160735;27;20170;-52
2022/07/23 13:21:36;;;;;;;;;;;20.20;51.80;;;;;;5164102;27;19927;-55
2022/07/23 13:24:02;;;;;;;;;;;20.10;51.80;;;;;;5165539;27;20287;-48
2022/07/23 13:26:27;;;;;;;;;;;20.20;52.20;;;;;;5162316;27;20287;-51
2022/07/23 13:28:53;;;;;;;;;;;20.70;57.50;;;;;;5167969;27;19930;-53
2022/07/23 13:31:19;;;;;;;;;;;21.40;58.60;;;;;;5162182;27;20419;-47
2022/07/23 13:33:45;;;;;;;;;;;21.80;56.90;;;;;;5162168;27;20005;-47
2022/07/23 13:36:11;;;;;;;;;;;21.00;55.60;;;;;;5146465;27;19923;-45
2022/07/23 13:38:37;;;;;;;;;;;20.80;54.00;;;;;;5141925;27;19947;-45
2022/07/23 13:41:03;;;;;;;;;;;20.60;53.60;;;;;;5162192;27;20020;-55
2022/07/23 13:43:28;;;;;;;;;;;20.40;53.20;;;;;;5167647;27;19999;-47
2022/07/23 13:45:54;;;;;;;;;;;20.50;52.40;;;;;;5162178;27;19930;-45
2022/07/23 13:48:20;;;;;;;;;;;20.30;52.40;;;;;;5167459;27;19922;-46
2022/07/23 13:50:46;;;;;;;;;;;20.20;52.40;;;;;;5161915;27;19930;-45
2022/07/23 13:53:21;;;;;;;;;;;20.30;51.80;;;;;;5160835;27;19970;-47
2022/07/23 13:55:47;;;;;;;;;;;20.30;51.80;;;;;;5165480;27;20018;-45
2022/07/23 13:58:13;;;;;;;;;;;20.30;51.70;;;;;;5161280;27;20368;-49
2022/07/23 14:00:40;;;;;;;;;;;20.20;51.60;;;;;;5161707;27;19923;-46
2022/07/23 14:03:06;;;;;;;;;;;20.10;51.80;;;;;;5167195;27;20313;-47
2022/07/23 14:05:32;;;;;;;;;;;20.20;51.80;;;;;;5161883;27;20021;-50
2022/07/23 14:07:58;;;;;;;;;;;20.00;51.60;;;;;;5165924;27;19975;-53
2022/07/23 14:10:27;;;;;;;;;;;20.10;51.50;;;;;;5163088;27;19927;-50
2022/07/23 14:12:55;;;;;;;;;;;20.30;54.30;;;;;;5160646;27;19929;-46
2022/07/23 14:15:21;;;;;;;;;;;21.00;57.90;;;;;;5165536;27;20373;-49
2022/07/23 14:17:47;;;;;;;;;;;21.80;58.10;;;;;;5161543;27;19958;-47